COOK1: Arkansas River Nr Coolidge, KS

                                SHEF ID:       COOK1     ARKANSAS R NR COOLIDGE, KS
STATION TYPE:
Regulating: Stage = 8.00, Flow = 2028

PRECIP STAGE STAGE(2) RIV-FLOW WTR-TEMP CONDUCT BAT-LOAD
in ft ft cfs F umho/cm volt
Ccp-Rev Ccp-Rev Ccp-Rev Ccp-Rev Ccp-Rev Ccp-Rev Ccp-Rev
(America/Chicago)
07/28 00:00 0.00 4.65 4.78 405 78.39 3244 12.95
07/28 01:00 0.00 4.67 4.76 411 77.85 3247 12.95
07/28 02:00 0.00 4.65 4.76 405 77.20 3249 12.89
07/28 03:00 0.00 4.66 4.76 408 76.51 3249 12.89
07/28 04:00 0.00 4.64 4.78 402 75.96 3245 12.89
07/28 05:00 0.00 4.66 4.80 408 75.36 3244 12.89
07/28 06:00 0.00 4.68 4.79 413 74.82 3247 12.83
07/28 07:00 0.00 4.69 4.79 416 74.17 3251 12.83
07/28 08:00 0.00 4.67 4.78 411 73.63 3247 12.83
07/28 09:00 0.00 4.69 4.81 416 73.53 3254 12.89
07/28 10:00 0.00 4.70 4.80 419 73.89 3267 13.07
07/28 11:00 0.00 4.69 4.82 416 74.59 3283 13.59
07/28 12:00 0.00 4.70 4.84 419 75.58 3283 13.71
07/28 13:00 0.00 4.73 4.85 427 76.86 3263 13.77
07/28 14:00 0.00 4.72 4.86 424 78.30 3262 13.77
07/28 15:00 0.00 4.73 4.84 427 79.72 3254 13.77
07/28 16:00 0.00 4.73 4.85 427 81.01 3245 13.65
07/28 17:00 0.00 4.70 4.84 419 82.04 3245 13.48
07/28 18:00 0.00 4.71 4.83 422 82.67 3233 13.36
07/28 19:00 0.00 4.71 4.85 422 82.99 3218 13.18
07/28 20:00 0.00 4.69 4.81 416 82.96 3220 13.18
07/28 21:00 0.00 4.68 4.78 413 82.62 3236 13.07
07/28 22:00 0.00 4.68 4.78 413 82.11 3254 13.00
07/28 23:00 ---- ---- ---- ---- ---- ---- ----
Data processed at Mon 29Jul2024 04:30 GMT

Parsing this webpage?

Checkout our new Data API! CWMSDataAPI (CDA)

Timeseries IDs (TSIDs)

TSIDs used from left to right in the data table
COOL.Precip-Inc.Total.1Hour.1Hour.Ccp-Rev
COOL.Stage.Inst.1Hour.0.Ccp-Rev
COOL.Stage-Alt.Inst.1Hour.0.Ccp-Rev
COOL.Flow.Inst.1Hour.0.Ccp-Rev
COOL.Temp-Water.Inst.1Hour.0.Ccp-Rev
COOL.Cond.Inst.1Hour.0.Ccp-Rev
COOL.Volt-Battery Load.Inst.1Hour.0.Ccp-Rev

                            

All information presented herein is the property of the government of the United States of America and may be revised or deleted at any time without prior notice. Dissemination of this information without the expressed written consent of the Public Affairs Office, Tulsa District U.S. Army Corps of Engineers is strictly prohibited. These data are gathered electronically and, as presented, have NOT undergone any form of quality control. These data are NOT guaranteed to be valid or correct.